createdAt,value
2019-02-19T00:01:16.312Z,35.88
2019-02-19T00:03:46.240Z,33.85
2019-02-19T00:06:16.160Z,43.20
2019-02-19T00:08:46.102Z,40.90
2019-02-19T00:11:15.928Z,51.45
2019-02-19T00:13:45.870Z,47.50
2019-02-19T00:16:15.744Z,31.97
2019-02-19T00:18:45.811Z,30.02
2019-02-19T00:21:15.633Z,25.15
2019-02-19T00:23:45.627Z,33.02
2019-02-19T00:26:18.780Z,22.27
2019-02-19T00:28:48.710Z,43.78
2019-02-19T00:31:18.647Z,27.07
2019-02-19T00:33:48.584Z,28.38
2019-02-19T00:36:18.575Z,59.95
2019-02-19T00:38:48.460Z,30.50
2019-02-19T00:41:18.541Z,39.03
2019-02-19T00:43:48.442Z,35.08
2019-02-19T00:46:18.414Z,30.82
2019-02-19T00:48:48.370Z,33.98
2019-02-19T00:51:18.301Z,48.83
2019-02-19T00:53:48.211Z,38.67
2019-02-19T00:56:18.163Z,57.05
2019-02-19T00:58:48.134Z,28.23
2019-02-19T01:01:18.043Z,33.55
2019-02-19T01:03:48.003Z,40.58
2019-02-19T01:06:17.814Z,44.77
2019-02-19T01:08:47.749Z,60.23
2019-02-19T01:11:17.540Z,31.33
2019-02-19T01:13:47.527Z,38.35
2019-02-19T01:16:17.550Z,31.48
2019-02-19T01:18:47.334Z,25.40
2019-02-19T01:21:17.267Z,24.85
2019-02-19T01:23:47.277Z,24.27
2019-02-19T01:26:17.086Z,26.75
2019-02-19T01:28:47.042Z,28.15
2019-02-19T01:31:17.108Z,26.30
2019-02-19T01:33:47.144Z,23.55
2019-02-19T01:36:17.155Z,25.80
2019-02-19T01:38:47.090Z,26.37
2019-02-19T01:41:16.979Z,26.85
2019-02-19T01:43:46.921Z,22.60
2019-02-19T01:46:16.973Z,24.00
2019-02-19T01:48:46.983Z,19.05
2019-02-19T01:51:16.999Z,23.62
2019-02-19T01:53:46.953Z,18.82
2019-02-19T01:56:16.940Z,17.42
2019-02-19T01:58:46.711Z,20.82
2019-02-19T02:01:16.603Z,19.98
2019-02-19T02:03:46.580Z,18.87
2019-02-19T02:06:16.447Z,16.37
2019-02-19T02:08:46.461Z,17.92
2019-02-19T02:11:16.233Z,18.90
2019-02-19T02:13:46.159Z,17.95
2019-02-19T02:16:15.940Z,19.90
2019-02-19T02:18:45.847Z,20.23
2019-02-19T02:21:15.746Z,17.85
2019-02-19T02:23:45.694Z,18.25
2019-02-19T02:26:15.542Z,18.48
2019-02-19T02:28:45.470Z,21.00
2019-02-19T02:31:15.386Z,17.37
2019-02-19T02:33:45.200Z,17.82
2019-02-19T02:36:15.105Z,18.70
2019-02-19T02:38:44.928Z,18.73
2019-02-19T02:41:14.834Z,16.57
2019-02-19T02:43:44.677Z,18.75
2019-02-19T02:46:14.606Z,18.37
2019-02-19T02:48:44.276Z,15.78
2019-02-19T02:51:14.038Z,16.10
2019-02-19T02:53:43.820Z,15.73
2019-02-19T02:56:13.743Z,14.87
2019-02-19T02:58:43.498Z,13.18
2019-02-19T03:01:13.287Z,14.35
2019-02-19T03:03:43.143Z,15.83
2019-02-19T03:06:34.419Z,18.62
2019-02-19T03:09:04.823Z,17.70
2019-02-19T03:11:36.251Z,16.17
2019-02-19T03:14:06.159Z,14.83
2019-02-19T03:16:37.914Z,14.85
2019-02-19T03:19:07.622Z,17.50
2019-02-19T03:21:37.499Z,17.37
2019-02-19T03:24:07.404Z,25.25
2019-02-19T03:26:37.348Z,17.25
2019-02-19T03:29:07.222Z,18.37
2019-02-19T03:31:37.102Z,19.57
2019-02-19T03:34:06.965Z,19.82
2019-02-19T03:36:36.802Z,19.37
2019-02-19T03:39:06.695Z,21.73
2019-02-19T03:41:36.515Z,22.32
2019-02-19T03:44:12.383Z,16.42
2019-02-19T03:46:42.331Z,17.60
2019-02-19T03:49:12.230Z,14.93
2019-02-19T03:51:42.047Z,17.27
2019-02-19T03:54:11.991Z,15.32
2019-02-19T03:56:41.803Z,16.57
2019-02-19T03:59:11.482Z,16.15
2019-02-19T04:01:41.232Z,18.77
2019-02-19T04:04:10.966Z,14.58
2019-02-19T04:06:40.787Z,16.42
2019-02-19T04:09:10.578Z,14.73
2019-02-19T04:11:40.345Z,15.53
2019-02-19T04:14:10.164Z,15.08
2019-02-19T04:16:40.019Z,12.45
2019-02-19T04:19:09.735Z,12.93
2019-02-19T04:21:39.589Z,18.20
2019-02-19T04:24:09.280Z,12.33
2019-02-19T04:26:38.986Z,11.95
2019-02-19T04:29:08.862Z,16.37
2019-02-19T04:31:38.631Z,15.00
2019-02-19T04:34:08.352Z,21.57
2019-02-19T04:36:38.262Z,15.13
2019-02-19T04:39:08.227Z,15.98
2019-02-19T04:41:37.917Z,14.13
2019-02-19T04:44:08.677Z,14.93
2019-02-19T04:46:38.505Z,13.60
2019-02-19T04:49:08.395Z,12.60
2019-02-19T04:51:38.280Z,13.15
2019-02-19T04:54:09.126Z,14.03
2019-02-19T04:56:38.960Z,13.18
2019-02-19T04:59:08.799Z,13.60
2019-02-19T05:01:38.704Z,14.47
2019-02-19T05:04:08.576Z,12.90
2019-02-19T05:06:38.374Z,12.90
2019-02-19T05:09:08.175Z,12.05
2019-02-19T05:11:37.959Z,12.40
2019-02-19T05:14:07.717Z,10.63
2019-02-19T05:16:40.619Z,14.18
2019-02-19T05:19:09.035Z,12.93
2019-02-19T05:21:38.766Z,14.45
2019-02-19T05:24:08.508Z,14.65
2019-02-19T05:26:38.214Z,13.00
2019-02-19T05:29:08.240Z,12.35
2019-02-19T05:31:38.085Z,14.47
2019-02-19T05:34:07.875Z,12.15
2019-02-19T05:36:37.723Z,14.15
2019-02-19T05:39:07.526Z,14.18
2019-02-19T05:41:37.324Z,16.23
2019-02-19T05:44:08.062Z,15.28
2019-02-19T05:46:37.961Z,16.15
2019-02-19T05:49:09.418Z,15.43
2019-02-19T05:51:39.118Z,14.60
2019-02-19T05:54:08.863Z,16.05
2019-02-19T05:56:38.591Z,15.18
2019-02-19T05:59:08.354Z,17.52
2019-02-19T06:01:38.242Z,13.55
2019-02-19T06:04:08.148Z,15.88
2019-02-19T06:06:37.895Z,15.85
2019-02-19T06:09:07.592Z,18.77
2019-02-19T06:11:37.427Z,18.73
2019-02-19T06:14:07.266Z,15.18
2019-02-19T06:18:23.761Z,17.60
2019-02-19T06:20:53.543Z,14.50
2019-02-19T06:23:23.374Z,14.17
2019-02-19T06:25:53.246Z,12.73
2019-02-19T06:28:23.067Z,14.85
2019-02-19T06:30:52.907Z,16.03
2019-02-19T06:33:22.730Z,18.15
2019-02-19T06:35:52.582Z,16.37
2019-02-19T06:38:22.290Z,15.43
2019-02-19T06:40:52.006Z,13.13
2019-02-19T06:43:21.879Z,16.12
2019-02-19T06:45:52.775Z,13.62
2019-02-19T06:48:22.463Z,15.43
2019-02-19T06:50:52.378Z,15.72
2019-02-19T06:53:22.138Z,17.40
2019-02-19T06:55:52.025Z,17.12
2019-02-19T06:58:21.883Z,17.35
2019-02-19T07:00:51.722Z,15.35
2019-02-19T07:03:26.246Z,16.45
2019-02-19T07:05:56.057Z,20.32
2019-02-19T07:08:25.824Z,16.82
2019-02-19T07:10:59.384Z,19.12
2019-02-19T07:13:29.027Z,20.40
2019-02-19T07:15:58.979Z,18.33
2019-02-19T07:18:28.671Z,16.27
2019-02-19T07:20:58.351Z,14.58
2019-02-19T07:23:28.023Z,19.35
2019-02-19T07:25:57.739Z,15.70
2019-02-19T07:28:27.531Z,15.28
2019-02-19T07:30:57.234Z,17.37
2019-02-19T07:33:26.869Z,16.45
2019-02-19T07:35:56.622Z,14.87
2019-02-19T07:38:26.330Z,15.63
2019-02-19T07:40:55.983Z,16.87
2019-02-19T07:43:25.698Z,15.53
2019-02-19T07:45:55.627Z,13.15
2019-02-19T07:48:25.444Z,15.60
2019-02-19T07:50:55.193Z,19.85
2019-02-19T07:53:24.902Z,15.20
2019-02-19T07:55:54.705Z,15.80
2019-02-19T07:58:24.517Z,17.55
2019-02-19T08:00:57.039Z,16.70
2019-02-19T08:03:26.777Z,17.57
2019-02-19T08:05:56.627Z,15.38
2019-02-19T08:08:26.343Z,15.25
2019-02-19T08:10:56.003Z,17.55
2019-02-19T08:13:25.779Z,17.20
2019-02-19T08:15:55.498Z,19.00
2019-02-19T08:18:25.364Z,18.50
2019-02-19T08:20:55.080Z,15.98
2019-02-19T08:23:24.818Z,18.45
2019-02-19T08:25:54.655Z,19.70
2019-02-19T08:28:24.438Z,19.27
2019-02-19T08:30:54.251Z,18.70
2019-02-19T08:33:24.046Z,19.47
2019-02-19T08:35:53.868Z,16.67
2019-02-19T08:38:23.782Z,23.25
2019-02-19T08:40:53.558Z,19.13
2019-02-19T08:43:23.288Z,21.23
2019-02-19T08:45:52.990Z,20.52
2019-02-19T08:48:22.836Z,20.37
2019-02-19T08:50:52.555Z,22.48
2019-02-19T08:53:22.222Z,19.50
2019-02-19T08:55:51.895Z,20.48
2019-02-19T08:58:21.902Z,20.65
2019-02-19T09:00:51.590Z,21.80
2019-02-19T09:03:21.344Z,19.82
2019-02-19T09:05:51.213Z,20.35
2019-02-19T09:08:20.978Z,26.55
2019-02-19T09:10:50.643Z,24.05
2019-02-19T09:13:20.407Z,23.90
2019-02-19T09:15:50.065Z,30.68
2019-02-19T09:18:19.755Z,28.62
2019-02-19T09:20:49.542Z,25.30
2019-02-19T09:23:19.389Z,23.65
2019-02-19T09:25:49.210Z,20.90
2019-02-19T09:28:18.952Z,26.90
2019-02-19T09:30:48.783Z,23.20
2019-02-19T09:33:18.546Z,22.77
2019-02-19T09:35:48.298Z,20.35
2019-02-19T09:38:18.179Z,22.25
2019-02-19T09:40:47.936Z,25.85
2019-02-19T09:43:17.700Z,21.10
2019-02-19T09:45:47.749Z,24.47
2019-02-19T09:48:17.502Z,25.75
2019-02-19T09:50:47.385Z,22.90
2019-02-19T09:53:17.399Z,23.67
2019-02-19T09:55:47.208Z,23.40
2019-02-19T09:58:17.127Z,26.93
2019-02-19T10:00:47.150Z,23.77
2019-02-19T10:03:17.327Z,24.00
2019-02-19T10:05:48.146Z,24.60
2019-02-19T10:08:17.964Z,24.52
2019-02-19T10:10:48.804Z,22.95
2019-02-19T10:13:19.728Z,21.97
2019-02-19T10:15:49.516Z,23.10
2019-02-19T10:18:19.347Z,28.85
2019-02-19T10:20:49.096Z,23.90
2019-02-19T10:23:18.969Z,24.37
2019-02-19T10:25:48.934Z,22.67
2019-02-19T10:28:18.717Z,27.33
2019-02-19T10:30:48.560Z,25.55
2019-02-19T10:33:18.454Z,26.60
2019-02-19T10:35:49.674Z,24.50
2019-02-19T10:38:20.332Z,23.27
2019-02-19T10:40:50.231Z,25.57
2019-02-19T10:43:19.950Z,21.27
2019-02-19T10:45:49.782Z,22.70
2019-02-19T10:48:19.562Z,24.63
2019-02-19T10:50:49.504Z,24.23
2019-02-19T10:53:19.391Z,25.10
2019-02-19T10:55:49.167Z,31.83
2019-02-19T10:58:22.875Z,25.25
2019-02-19T11:00:50.567Z,24.87
2019-02-19T11:03:20.411Z,22.75
2019-02-19T11:05:50.211Z,22.73
2019-02-19T11:08:19.974Z,24.37
2019-02-19T11:10:50.872Z,21.90
2019-02-19T11:13:20.803Z,24.10
2019-02-19T11:15:50.517Z,22.58
2019-02-19T11:18:28.161Z,24.90
2019-02-19T11:20:51.868Z,23.92
2019-02-19T11:23:21.771Z,24.90
2019-02-19T11:25:51.624Z,22.70
2019-02-19T11:28:21.370Z,26.62
2019-02-19T11:30:51.191Z,30.27
2019-02-19T11:33:20.979Z,26.70
2019-02-19T11:35:50.858Z,25.77
2019-02-19T11:38:20.721Z,23.75
2019-02-19T11:40:50.595Z,23.45
2019-02-19T11:43:21.521Z,22.17
2019-02-19T11:45:51.244Z,23.38
2019-02-19T11:48:21.085Z,24.82
2019-02-19T11:50:50.839Z,21.20
2019-02-19T11:53:22.285Z,22.17
2019-02-19T11:55:52.262Z,23.42
2019-02-19T11:58:23.105Z,22.30
2019-02-19T12:00:52.968Z,24.23
2019-02-19T12:03:22.795Z,21.82
2019-02-19T12:05:52.728Z,25.37
2019-02-19T12:08:22.441Z,22.70
2019-02-19T12:10:52.399Z,23.57
2019-02-19T12:13:24.163Z,20.20
2019-02-19T12:15:54.085Z,20.02
2019-02-19T12:18:23.880Z,17.82
2019-02-19T12:20:53.786Z,19.95
2019-02-19T12:23:23.636Z,21.23
2019-02-19T12:25:53.447Z,20.40
2019-02-19T12:28:23.279Z,17.65
2019-02-19T12:30:53.182Z,16.45
2019-02-19T12:33:23.062Z,15.50
2019-02-19T12:35:52.961Z,18.05
2019-02-19T12:38:22.806Z,16.97
2019-02-19T12:40:52.507Z,16.12
2019-02-19T12:43:22.321Z,15.00
2019-02-19T12:45:52.158Z,17.07
2019-02-19T12:48:22.033Z,15.10
2019-02-19T12:50:51.855Z,14.98
2019-02-19T12:53:21.666Z,16.40
2019-02-19T12:55:51.687Z,16.75
2019-02-19T12:58:21.571Z,17.37
2019-02-19T13:00:51.401Z,15.03
2019-02-19T13:03:21.203Z,16.17
2019-02-19T13:05:51.138Z,17.48
2019-02-19T13:08:20.914Z,15.78
2019-02-19T13:10:50.743Z,22.35
2019-02-19T13:13:20.541Z,19.77
2019-02-19T13:15:50.370Z,15.95
2019-02-19T13:18:20.194Z,14.90
2019-02-19T13:20:50.149Z,15.95
2019-02-19T13:23:20.034Z,17.95
2019-02-19T13:25:49.803Z,12.80
2019-02-19T13:28:19.659Z,13.87
2019-02-19T13:30:49.450Z,11.22
2019-02-19T13:33:19.342Z,13.20
2019-02-19T13:35:50.693Z,12.98
2019-02-19T13:38:20.745Z,12.25
2019-02-19T13:40:50.538Z,13.72
2019-02-19T13:43:20.655Z,15.95
2019-02-19T13:45:50.443Z,16.57
2019-02-19T13:48:20.241Z,15.33
2019-02-19T13:50:50.222Z,14.13
2019-02-19T13:53:27.969Z,15.30
2019-02-19T13:55:58.802Z,15.00
2019-02-19T13:58:28.771Z,12.23
2019-02-19T14:00:58.699Z,12.65
2019-02-19T14:03:28.582Z,13.32
2019-02-19T14:06:00.603Z,10.57
2019-02-19T14:08:30.547Z,11.90
2019-02-19T14:11:00.330Z,9.28
2019-02-19T14:13:30.314Z,9.37
2019-02-19T14:16:19.037Z,7.60
2019-02-19T14:19:02.749Z,8.73
2019-02-19T14:21:50.380Z,8.05
2019-02-19T14:24:33.803Z,7.15
2019-02-19T14:27:17.641Z,6.60
2019-02-19T14:30:06.492Z,8.97
2019-02-19T14:32:47.654Z,7.17
2019-02-19T14:35:42.524Z,11.80
2019-02-19T14:38:31.438Z,8.00
2019-02-19T14:41:30.562Z,6.47
2019-02-19T14:44:24.120Z,7.92
2019-02-19T14:47:11.656Z,6.22
2019-02-19T14:50:00.512Z,7.78
2019-02-19T14:52:52.921Z,8.20
2019-02-19T14:55:42.703Z,11.03
2019-02-19T14:58:31.243Z,8.13
2019-02-19T15:01:32.806Z,7.67
2019-02-19T15:04:14.115Z,6.67
2019-02-19T15:07:01.498Z,7.58
2019-02-19T15:09:48.737Z,6.20
2019-02-19T15:12:37.550Z,8.10
2019-02-19T15:15:27.335Z,8.38
2019-02-19T15:18:29.364Z,6.78
2019-02-19T15:21:27.541Z,6.40
2019-02-19T15:24:19.139Z,9.63
2019-02-19T15:27:08.097Z,4.85
2019-02-19T15:30:15.315Z,7.33
2019-02-19T15:33:13.278Z,21.20
2019-02-19T15:35:55.366Z,6.92
2019-02-19T15:38:44.283Z,9.60
2019-02-19T15:41:39.416Z,7.12
2019-02-19T15:44:32.436Z,7.30
2019-02-19T15:47:15.614Z,5.05
2019-02-19T15:50:07.143Z,7.00
2019-02-19T15:52:47.594Z,8.38
2019-02-19T15:55:37.058Z,5.10
2019-02-19T15:58:35.438Z,4.87
2019-02-19T16:01:23.006Z,8.10
2019-02-19T16:03:58.522Z,4.90
2019-02-19T16:06:47.391Z,5.40
2019-02-19T16:09:45.267Z,9.35
2019-02-19T16:12:29.449Z,11.38
2019-02-19T16:15:25.753Z,12.90
2019-02-19T16:18:10.446Z,7.67
2019-02-19T16:21:02.182Z,9.80
2019-02-19T16:23:47.643Z,6.92
2019-02-19T16:26:42.714Z,8.88
2019-02-19T16:29:30.507Z,7.28
2019-02-19T16:32:09.687Z,6.20
2019-02-19T16:35:13.546Z,8.45
2019-02-19T16:38:08.031Z,9.03
2019-02-19T16:40:56.103Z,8.80
2019-02-19T16:43:43.837Z,6.22
2019-02-19T16:46:41.514Z,14.58
2019-02-19T16:49:37.634Z,9.58
2019-02-19T16:52:38.476Z,8.68
2019-02-19T16:55:17.033Z,6.75
2019-02-19T16:57:54.854Z,8.78
2019-02-19T17:00:36.394Z,6.97
2019-02-19T17:03:25.114Z,7.50
2019-02-19T17:06:18.608Z,7.47
2019-02-19T17:09:05.703Z,7.65
2019-02-19T17:11:59.347Z,6.35
2019-02-19T17:14:48.151Z,8.05
2019-02-19T17:17:40.863Z,8.50
2019-02-19T17:20:39.038Z,5.83
2019-02-19T17:23:35.650Z,7.08
2019-02-19T17:26:33.301Z,6.92
2019-02-19T17:29:12.366Z,7.42
2019-02-19T17:32:11.630Z,7.50
2019-02-19T17:34:46.294Z,7.25
2019-02-19T17:37:42.063Z,5.35
2019-02-19T17:40:17.159Z,8.38
2019-02-19T17:43:01.211Z,7.35
2019-02-19T17:45:59.033Z,7.10
2019-02-19T17:48:43.102Z,9.25
2019-02-19T17:51:29.471Z,9.70
2019-02-19T17:54:25.014Z,16.40
2019-02-19T17:57:28.318Z,13.95
2019-02-19T18:00:08.920Z,14.47
2019-02-19T18:02:46.971Z,15.85
2019-02-19T18:05:34.894Z,14.78
2019-02-19T18:08:29.683Z,50.05
2019-02-19T18:11:15.902Z,8.45
2019-02-19T18:14:22.748Z,7.30
2019-02-19T18:17:17.448Z,8.75
2019-02-19T18:19:47.616Z,7.45
2019-02-19T18:22:17.473Z,9.50
2019-02-19T18:24:47.286Z,7.20
2019-02-19T18:27:17.079Z,10.25
2019-02-19T18:29:46.942Z,9.45
2019-02-19T18:32:16.630Z,8.85
2019-02-19T18:34:46.391Z,9.25
2019-02-19T18:37:16.077Z,10.40
2019-02-19T18:39:45.772Z,9.13
2019-02-19T18:42:15.438Z,9.53
2019-02-19T18:44:46.095Z,8.25
2019-02-19T18:47:15.854Z,7.78
2019-02-19T18:49:45.663Z,9.70
2019-02-19T18:52:15.398Z,8.48
2019-02-19T18:54:45.146Z,8.15
2019-02-19T18:57:14.903Z,11.83
2019-02-19T18:59:44.603Z,8.17
2019-02-19T19:02:14.274Z,6.60
2019-02-19T19:04:44.071Z,8.85
2019-02-19T19:07:13.740Z,9.55
2019-02-19T19:09:43.538Z,7.92
2019-02-19T19:12:13.193Z,8.90
2019-02-19T19:14:42.911Z,8.15
2019-02-19T19:17:13.785Z,9.90
2019-02-19T19:19:43.507Z,8.73
2019-02-19T19:22:13.248Z,9.08
2019-02-19T19:24:42.931Z,10.90
2019-02-19T19:27:12.787Z,12.33
2019-02-19T19:29:42.512Z,9.93
2019-02-19T19:32:12.188Z,10.20
2019-02-19T19:34:42.006Z,10.05
2019-02-19T19:37:11.725Z,9.78
2019-02-19T19:39:41.474Z,10.87
2019-02-19T19:42:11.219Z,12.18
2019-02-19T19:44:41.027Z,10.90
2019-02-19T19:47:10.707Z,10.38
2019-02-19T19:49:40.378Z,10.27
2019-02-19T19:52:10.232Z,8.60
2019-02-19T19:54:40.135Z,9.05
2019-02-19T19:57:09.904Z,9.23
2019-02-19T19:59:39.559Z,10.28
2019-02-19T20:02:09.299Z,7.92
2019-02-19T20:04:38.941Z,9.43
2019-02-19T20:07:08.695Z,8.47
2019-02-19T20:09:38.483Z,9.53
2019-02-19T20:12:08.301Z,15.45
2019-02-19T20:14:38.034Z,13.95
2019-02-19T20:17:07.891Z,13.93
2019-02-19T20:19:38.586Z,14.40
2019-02-19T20:22:08.266Z,15.65
2019-02-19T20:24:37.974Z,13.50
2019-02-19T20:27:07.870Z,16.55
2019-02-19T20:29:37.647Z,10.32
2019-02-19T20:32:07.537Z,10.15
2019-02-19T20:34:38.170Z,9.80
2019-02-19T20:37:07.965Z,10.63
2019-02-19T20:39:37.703Z,12.30
2019-02-19T20:42:07.410Z,12.00
2019-02-19T20:44:37.141Z,11.70
2019-02-19T20:47:06.832Z,9.45
2019-02-19T20:49:36.616Z,12.10
2019-02-19T20:52:06.351Z,10.40
2019-02-19T20:54:36.021Z,13.60
2019-02-19T20:57:05.820Z,12.82
2019-02-19T20:59:35.570Z,27.50
2019-02-19T21:02:05.337Z,22.37
2019-02-19T21:04:35.091Z,22.58
2019-02-19T21:07:04.911Z,19.45
2019-02-19T21:09:43.522Z,11.08
2019-02-19T21:12:06.170Z,15.13
2019-02-19T21:14:35.947Z,12.58
2019-02-19T21:17:05.619Z,12.68
2019-02-19T21:19:35.318Z,11.57
2019-02-19T21:22:04.978Z,9.80
2019-02-19T21:24:34.747Z,12.00
2019-02-19T21:27:04.515Z,10.98
2019-02-19T21:29:34.203Z,11.85
2019-02-19T21:32:03.895Z,10.28
2019-02-19T21:34:33.583Z,11.68
2019-02-19T21:37:03.304Z,11.20
2019-02-19T21:39:32.979Z,11.97
2019-02-19T21:42:02.656Z,11.43
2019-02-19T21:44:32.354Z,11.50
2019-02-19T21:47:02.191Z,13.22
2019-02-19T21:49:32.062Z,10.55
2019-02-19T21:52:01.818Z,11.18
2019-02-19T21:54:31.544Z,11.55
2019-02-19T21:57:01.194Z,11.73
2019-02-19T21:59:31.126Z,12.20
2019-02-19T22:02:00.790Z,16.00
2019-02-19T22:04:32.078Z,13.88
2019-02-19T22:07:02.008Z,13.20
2019-02-19T22:09:31.860Z,23.25
2019-02-19T22:12:01.625Z,15.50
2019-02-19T22:14:31.406Z,12.37
2019-02-19T22:17:01.083Z,10.65
2019-02-19T22:19:30.781Z,14.85
2019-02-19T22:22:10.987Z,10.18
2019-02-19T22:24:41.814Z,12.20
2019-02-19T22:27:11.479Z,13.70
2019-02-19T22:29:41.256Z,11.35
2019-02-19T22:32:11.950Z,10.85
2019-02-19T22:34:41.744Z,12.33
2019-02-19T22:37:11.409Z,12.33
2019-02-19T22:39:41.114Z,11.38
2019-02-19T22:42:10.889Z,12.58
2019-02-19T22:44:40.696Z,11.22
2019-02-19T22:47:10.367Z,14.73
2019-02-19T22:49:40.039Z,9.78
2019-02-19T22:52:12.566Z,10.65
2019-02-19T22:54:52.751Z,13.45
2019-02-19T22:57:22.412Z,9.80
2019-02-19T22:59:52.113Z,14.68
2019-02-19T23:02:27.491Z,10.40
2019-02-19T23:04:57.250Z,11.20
2019-02-19T23:07:27.017Z,13.88
2019-02-19T23:09:56.780Z,14.28
2019-02-19T23:12:27.607Z,13.43
2019-02-19T23:14:57.295Z,15.93
2019-02-19T23:17:26.966Z,13.28
2019-02-19T23:19:56.707Z,13.95
2019-02-19T23:22:26.444Z,15.55
2019-02-19T23:24:56.301Z,14.98
2019-02-19T23:27:26.115Z,14.98
2019-02-19T23:29:55.863Z,17.02
2019-02-19T23:32:25.749Z,13.88
2019-02-19T23:35:20.783Z,16.07
2019-02-19T23:37:50.452Z,14.35
2019-02-19T23:40:20.218Z,14.35
2019-02-19T23:42:49.947Z,12.63
2019-02-19T23:45:19.638Z,11.60
2019-02-19T23:47:49.318Z,13.30
2019-02-19T23:50:19.297Z,16.00
2019-02-19T23:52:49.030Z,12.85
2019-02-19T23:55:18.732Z,14.20
2019-02-19T23:57:48.422Z,15.48
